sensor_id;sensor_type;location;lat;lon;timestamp;pressure;altitude;pressure_sealevel;temperature;humidity
38253;BME280;24785;52.372;20.672;2023-03-04T00:07:53;100424.03;;;-0.45;100.00
38253;BME280;24785;52.372;20.672;2023-03-04T00:17:55;100414.91;;;-0.36;100.00
38253;BME280;24785;52.372;20.672;2023-03-04T00:27:56;100378.47;;;-0.25;100.00
38253;BME280;24785;52.372;20.672;2023-03-04T00:37:57;100364.47;;;-0.19;100.00
38253;BME280;24785;52.372;20.672;2023-03-04T00:47:58;100361.84;;;-0.19;100.00
38253;BME280;24785;52.372;20.672;2023-03-04T00:57:59;100339.16;;;-0.20;100.00
38253;BME280;24785;52.372;20.672;2023-03-04T01:08:01;100337.31;;;-0.20;100.00
38253;BME280;24785;52.372;20.672;2023-03-04T01:18:02;100277.34;;;-0.18;100.00
38253;BME280;24785;52.372;20.672;2023-03-04T01:28:03;100224.09;;;-0.20;100.00
38253;BME280;24785;52.372;20.672;2023-03-04T01:38:04;100215.34;;;-0.14;100.00
38253;BME280;24785;52.372;20.672;2023-03-04T01:48:05;100177.06;;;-0.16;100.00
38253;BME280;24785;52.372;20.672;2023-03-04T01:58:09;100182.13;;;-0.15;100.00
38253;BME280;24785;52.372;20.672;2023-03-04T02:08:11;100175.03;;;-0.14;100.00
38253;BME280;24785;52.372;20.672;2023-03-04T02:18:20;100162.69;;;-0.14;100.00
38253;BME280;24785;52.372;20.672;2023-03-04T02:28:21;100191.19;;;-0.04;100.00
38253;BME280;24785;52.372;20.672;2023-03-04T02:38:22;100187.75;;;0.02;100.00
38253;BME280;24785;52.372;20.672;2023-03-04T02:48:22;100156.91;;;0.09;100.00
38253;BME280;24785;52.372;20.672;2023-03-04T02:58:23;100151.97;;;0.19;100.00
38253;BME280;24785;52.372;20.672;2023-03-04T03:08:24;100156.06;;;0.15;100.00
38253;BME280;24785;52.372;20.672;2023-03-04T03:18:25;100141.78;;;0.29;100.00
38253;BME280;24785;52.372;20.672;2023-03-04T03:28:27;100141.28;;;0.39;100.00
38253;BME280;24785;52.372;20.672;2023-03-04T03:38:27;100133.53;;;0.44;100.00
38253;BME280;24785;52.372;20.672;2023-03-04T03:48:28;100120.38;;;0.44;100.00
38253;BME280;24785;52.372;20.672;2023-03-04T03:58:29;100118.50;;;0.51;100.00
38253;BME280;24785;52.372;20.672;2023-03-04T04:08:30;100099.19;;;0.57;100.00
38253;BME280;24785;52.372;20.672;2023-03-04T04:18:31;100092.84;;;0.65;100.00
38253;BME280;24785;52.372;20.672;2023-03-04T04:28:32;100086.25;;;0.74;100.00
38253;BME280;24785;52.372;20.672;2023-03-04T04:38:33;100078.06;;;0.82;100.00
38253;BME280;24785;52.372;20.672;2023-03-04T04:48:34;100068.47;;;0.88;100.00
38253;BME280;24785;52.372;20.672;2023-03-04T04:58:35;100073.66;;;0.94;100.00
38253;BME280;24785;52.372;20.672;2023-03-04T05:08:36;100067.31;;;1.02;100.00
38253;BME280;24785;52.372;20.672;2023-03-04T05:18:37;100073.41;;;1.03;100.00
38253;BME280;24785;52.372;20.672;2023-03-04T05:28:38;100060.00;;;1.04;100.00
38253;BME280;24785;52.372;20.672;2023-03-04T05:38:38;100064.38;;;1.10;100.00
38253;BME280;24785;52.372;20.672;2023-03-04T05:48:39;100055.22;;;1.13;100.00
38253;BME280;24785;52.372;20.672;2023-03-04T05:58:41;100038.06;;;1.22;100.00
38253;BME280;24785;52.372;20.672;2023-03-04T06:08:42;100030.94;;;1.22;100.00
38253;BME280;24785;52.372;20.672;2023-03-04T06:18:43;100012.69;;;1.21;100.00
38253;BME280;24785;52.372;20.672;2023-03-04T06:28:44;100018.91;;;1.26;100.00
38253;BME280;24785;52.372;20.672;2023-03-04T06:38:45;100025.59;;;1.29;100.00
38253;BME280;24785;52.372;20.672;2023-03-04T06:48:46;100016.78;;;1.35;100.00
38253;BME280;24785;52.372;20.672;2023-03-04T06:58:47;100030.41;;;1.32;100.00
38253;BME280;24785;52.372;20.672;2023-03-04T07:08:48;100027.91;;;1.37;100.00
38253;BME280;24785;52.372;20.672;2023-03-04T07:18:49;100014.88;;;1.42;100.00
38253;BME280;24785;52.372;20.672;2023-03-04T07:28:50;100005.84;;;1.50;100.00
38253;BME280;24785;52.372;20.672;2023-03-04T07:38:52;100001.38;;;1.50;100.00
38253;BME280;24785;52.372;20.672;2023-03-04T07:48:56;99987.06;;;1.70;100.00
38253;BME280;24785;52.372;20.672;2023-03-04T07:58:57;99976.16;;;1.78;100.00
38253;BME280;24785;52.372;20.672;2023-03-04T08:09:01;99976.63;;;1.75;100.00
38253;BME280;24785;52.372;20.672;2023-03-04T08:19:03;99954.56;;;1.81;100.00
38253;BME280;24785;52.372;20.672;2023-03-04T08:29:05;99956.44;;;1.92;100.00
38253;BME280;24785;52.372;20.672;2023-03-04T08:39:06;99964.72;;;1.96;100.00
38253;BME280;24785;52.372;20.672;2023-03-04T08:49:07;99945.44;;;2.18;100.00
38253;BME280;24785;52.372;20.672;2023-03-04T08:59:10;99926.22;;;2.35;100.00
38253;BME280;24785;52.372;20.672;2023-03-04T09:09:11;99923.00;;;2.44;100.00
38253;BME280;24785;52.372;20.672;2023-03-04T09:19:12;99926.56;;;2.50;100.00
38253;BME280;24785;52.372;20.672;2023-03-04T09:29:14;99924.03;;;2.55;99.33
38253;BME280;24785;52.372;20.672;2023-03-04T09:39:15;99914.38;;;2.49;99.92
38253;BME280;24785;52.372;20.672;2023-03-04T09:49:18;99914.28;;;2.44;100.00
38253;BME280;24785;52.372;20.672;2023-03-04T09:59:34;99912.09;;;2.41;100.00
38253;BME280;24785;52.372;20.672;2023-03-04T10:29:48;99879.44;;;2.24;100.00
38253;BME280;24785;52.372;20.672;2023-03-04T10:39:49;99868.53;;;2.20;100.00
38253;BME280;24785;52.372;20.672;2023-03-04T10:49:58;99853.63;;;2.02;100.00
38253;BME280;24785;52.372;20.672;2023-03-04T11:00:03;99850.16;;;1.67;100.00
38253;BME280;24785;52.372;20.672;2023-03-04T11:10:28;99838.78;;;1.78;100.00
38253;BME280;24785;52.372;20.672;2023-03-04T11:41:29;99836.94;;;2.13;100.00
38253;BME280;24785;52.372;20.672;2023-03-04T12:01:58;99822.38;;;1.99;100.00
38253;BME280;24785;52.372;20.672;2023-03-04T12:32:41;99813.13;;;2.94;100.00
38253;BME280;24785;52.372;20.672;2023-03-04T12:53:36;99818.63;;;3.37;100.00
38253;BME280;24785;52.372;20.672;2023-03-04T13:24:43;99853.25;;;1.87;100.00
38253;BME280;24785;52.372;20.672;2023-03-04T13:34:54;99856.03;;;0.55;100.00
38253;BME280;24785;52.372;20.672;2023-03-04T13:44:57;99815.44;;;0.86;100.00
38253;BME280;24785;52.372;20.672;2023-03-04T13:55:37;99817.53;;;1.38;100.00
38253;BME280;24785;52.372;20.672;2023-03-04T14:05:38;99818.03;;;2.45;100.00
38253;BME280;24785;52.372;20.672;2023-03-04T14:15:39;99819.41;;;3.21;91.69
38253;BME280;24785;52.372;20.672;2023-03-04T14:25:40;99820.09;;;4.00;82.43
38253;BME280;24785;52.372;20.672;2023-03-04T14:35:46;99813.56;;;4.08;73.82
38253;BME280;24785;52.372;20.672;2023-03-04T14:45:53;99820.28;;;3.27;65.06
38253;BME280;24785;52.372;20.672;2023-03-04T14:55:55;99830.78;;;3.05;64.10
38253;BME280;24785;52.372;20.672;2023-03-04T15:06:14;99842.88;;;2.84;63.48
38253;BME280;24785;52.372;20.672;2023-03-04T15:16:18;99863.28;;;2.60;55.50
38253;BME280;24785;52.372;20.672;2023-03-04T15:26:21;99874.75;;;2.37;52.99
38253;BME280;24785;52.372;20.672;2023-03-04T15:36:22;99913.25;;;1.98;56.35
38253;BME280;24785;52.372;20.672;2023-03-04T15:46:23;99938.09;;;1.14;59.63
38253;BME280;24785;52.372;20.672;2023-03-04T15:56:32;99966.19;;;0.72;58.39
38253;BME280;24785;52.372;20.672;2023-03-04T16:06:34;99996.09;;;0.41;56.54
38253;BME280;24785;52.372;20.672;2023-03-04T16:16:35;100021.22;;;-0.07;56.79
38253;BME280;24785;52.372;20.672;2023-03-04T16:26:36;100009.84;;;-0.32;55.88
38253;BME280;24785;52.372;20.672;2023-03-04T16:36:37;100044.13;;;-0.39;55.46
38253;BME280;24785;52.372;20.672;2023-03-04T16:46:38;100050.63;;;-0.48;53.85
38253;BME280;24785;52.372;20.672;2023-03-04T16:56:38;100078.41;;;-0.14;51.10
38253;BME280;24785;52.372;20.672;2023-03-04T17:06:39;100080.66;;;-0.17;50.05
38253;BME280;24785;52.372;20.672;2023-03-04T17:16:40;100099.81;;;-0.42;50.81
38253;BME280;24785;52.372;20.672;2023-03-04T17:26:41;100118.78;;;-0.78;52.97
38253;BME280;24785;52.372;20.672;2023-03-04T17:36:42;100136.00;;;-1.02;52.92
38253;BME280;24785;52.372;20.672;2023-03-04T17:46:46;100142.47;;;-0.84;51.21
38253;BME280;24785;52.372;20.672;2023-03-04T17:56:48;100142.69;;;-1.06;51.53
38253;BME280;24785;52.372;20.672;2023-03-04T18:06:49;100155.22;;;-1.08;51.14
38253;BME280;24785;52.372;20.672;2023-03-04T18:16:50;100162.72;;;-1.31;52.66
38253;BME280;24785;52.372;20.672;2023-03-04T18:26:51;100177.50;;;-1.37;52.65
38253;BME280;24785;52.372;20.672;2023-03-04T18:36:52;100184.34;;;-1.42;50.00
38253;BME280;24785;52.372;20.672;2023-03-04T18:46:54;100184.72;;;-1.59;50.72
38253;BME280;24785;52.372;20.672;2023-03-04T18:57:00;100202.09;;;-1.71;51.55
38253;BME280;24785;52.372;20.672;2023-03-04T19:07:02;100203.28;;;-1.86;52.41
38253;BME280;24785;52.372;20.672;2023-03-04T19:17:03;100216.72;;;-2.03;53.50
38253;BME280;24785;52.372;20.672;2023-03-04T19:27:04;100234.44;;;-2.18;55.42
38253;BME280;24785;52.372;20.672;2023-03-04T19:37:05;100235.91;;;-2.43;57.20
38253;BME280;24785;52.372;20.672;2023-03-04T19:47:06;100253.81;;;-2.54;58.05
38253;BME280;24785;52.372;20.672;2023-03-04T19:57:07;100259.09;;;-2.81;59.27
38253;BME280;24785;52.372;20.672;2023-03-04T20:07:08;100270.72;;;-2.84;59.80
38253;BME280;24785;52.372;20.672;2023-03-04T20:17:11;100268.50;;;-2.87;60.14
38253;BME280;24785;52.372;20.672;2023-03-04T20:27:14;100263.72;;;-3.05;60.98
38253;BME280;24785;52.372;20.672;2023-03-04T20:37:16;100271.53;;;-3.11;61.25
38253;BME280;24785;52.372;20.672;2023-03-04T20:47:17;100265.84;;;-3.15;61.91
38253;BME280;24785;52.372;20.672;2023-03-04T20:57:18;100271.66;;;-3.20;61.28
38253;BME280;24785;52.372;20.672;2023-03-04T21:07:19;100264.50;;;-3.47;62.12
38253;BME280;24785;52.372;20.672;2023-03-04T21:17:19;100276.16;;;-3.86;64.12
38253;BME280;24785;52.372;20.672;2023-03-04T21:27:20;100265.91;;;-4.02;64.10
38253;BME280;24785;52.372;20.672;2023-03-04T21:37:23;100277.56;;;-4.19;66.21
38253;BME280;24785;52.372;20.672;2023-03-04T21:47:24;100274.22;;;-4.13;65.99
38253;BME280;24785;52.372;20.672;2023-03-04T21:57:25;100273.47;;;-4.36;67.71
38253;BME280;24785;52.372;20.672;2023-03-04T22:07:26;100282.31;;;-4.37;67.73
38253;BME280;24785;52.372;20.672;2023-03-04T22:17:27;100270.97;;;-4.45;69.36
38253;BME280;24785;52.372;20.672;2023-03-04T22:27:28;100270.78;;;-4.43;69.17
38253;BME280;24785;52.372;20.672;2023-03-04T22:37:30;100267.72;;;-4.32;69.29
38253;BME280;24785;52.372;20.672;2023-03-04T22:47:30;100269.78;;;-4.57;71.17
38253;BME280;24785;52.372;20.672;2023-03-04T22:57:31;100265.72;;;-4.59;70.96
38253;BME280;24785;52.372;20.672;2023-03-04T23:07:34;100265.84;;;-4.76;72.54
38253;BME280;24785;52.372;20.672;2023-03-04T23:17:35;100271.31;;;-5.00;74.96
38253;BME280;24785;52.372;20.672;2023-03-04T23:27:37;100274.38;;;-4.96;74.92
38253;BME280;24785;52.372;20.672;2023-03-04T23:37:38;100257.31;;;-5.07;74.22
38253;BME280;24785;52.372;20.672;2023-03-04T23:47:39;100256.00;;;-5.03;73.70
38253;BME280;24785;52.372;20.672;2023-03-04T23:57:40;100262.63;;;-5.15;75.36
